createdAt,value
2024-05-09T00:00:30.387Z,0.00
2024-05-09T00:01:22.952Z,0.00
2024-05-09T00:02:23.088Z,0.00
2024-05-09T00:03:22.921Z,0.00
2024-05-09T00:04:22.919Z,0.00
2024-05-09T00:05:22.965Z,0.00
2024-05-09T00:06:22.856Z,0.00
2024-05-09T00:07:22.922Z,0.00
2024-05-09T00:08:22.884Z,0.00
2024-05-09T00:09:22.827Z,0.00
2024-05-09T00:10:29.256Z,0.00
2024-05-09T00:11:23.036Z,0.00
2024-05-09T00:12:23.093Z,0.00
2024-05-09T00:13:22.797Z,0.00
2024-05-09T00:14:22.872Z,0.00
2024-05-09T00:15:22.755Z,0.00
2024-05-09T00:16:22.752Z,0.00
2024-05-09T00:17:22.936Z,0.00
2024-05-09T00:18:22.917Z,0.00
2024-05-09T00:19:22.941Z,0.00
2024-05-09T00:20:28.540Z,0.00
2024-05-09T00:21:22.683Z,0.00
2024-05-09T00:22:22.706Z,0.00
2024-05-09T00:23:22.741Z,0.00
2024-05-09T00:24:22.674Z,0.00
2024-05-09T00:25:22.648Z,0.00
2024-05-09T00:26:22.752Z,0.00
2024-05-09T00:27:22.627Z,0.00
2024-05-09T00:28:22.623Z,0.00
2024-05-09T00:29:22.665Z,0.00
2024-05-09T00:30:31.595Z,0.00
2024-05-09T00:31:22.589Z,0.00
2024-05-09T00:32:22.671Z,0.00
2024-05-09T00:33:22.770Z,0.00
2024-05-09T00:34:22.647Z,0.00
2024-05-09T00:35:22.660Z,0.00
2024-05-09T00:36:22.522Z,0.00
2024-05-09T00:37:22.538Z,0.00
2024-05-09T00:38:22.565Z,0.00
2024-05-09T00:39:22.563Z,0.00
2024-05-09T00:40:30.927Z,0.00
2024-05-09T00:41:22.520Z,0.00
2024-05-09T00:42:22.464Z,0.00
2024-05-09T00:43:22.465Z,0.00
2024-05-09T00:44:22.490Z,0.00
2024-05-09T00:45:22.470Z,0.00
2024-05-09T00:46:22.467Z,0.00
2024-05-09T00:47:22.660Z,0.00
2024-05-09T00:48:22.555Z,0.00
2024-05-09T00:49:22.564Z,0.00
2024-05-09T00:50:29.841Z,0.00
2024-05-09T00:51:22.386Z,0.00
2024-05-09T00:52:22.393Z,0.00
2024-05-09T00:53:22.395Z,0.00
2024-05-09T00:54:22.318Z,0.00
2024-05-09T00:55:22.316Z,0.00
2024-05-09T00:56:22.442Z,0.00
2024-05-09T00:57:22.321Z,0.00
2024-05-09T00:58:22.323Z,0.00
2024-05-09T00:59:22.326Z,0.00
2024-05-09T01:00:30.724Z,0.00
2024-05-09T01:01:22.283Z,0.00
2024-05-09T01:02:22.308Z,0.00
2024-05-09T01:03:22.774Z,0.00
2024-05-09T01:04:22.270Z,0.00
2024-05-09T01:05:22.251Z,0.00
2024-05-09T01:06:22.211Z,0.00
2024-05-09T01:07:22.188Z,0.00
2024-05-09T01:08:22.231Z,0.00
2024-05-09T01:09:22.178Z,0.00
2024-05-09T01:10:28.147Z,0.00
2024-05-09T01:11:22.232Z,0.00
2024-05-09T01:12:22.209Z,0.00
2024-05-09T01:13:22.137Z,0.00
2024-05-09T01:14:22.187Z,0.00
2024-05-09T01:15:22.144Z,0.00
2024-05-09T01:16:22.113Z,0.00
2024-05-09T01:17:22.281Z,0.00
2024-05-09T01:18:22.223Z,0.00
2024-05-09T01:19:22.225Z,0.00
2024-05-09T01:20:31.815Z,0.00
2024-05-09T01:21:22.084Z,0.00
2024-05-09T01:22:22.190Z,0.00
2024-05-09T01:23:22.109Z,0.00
2024-05-09T01:24:22.044Z,0.00
2024-05-09T01:25:22.015Z,0.00
2024-05-09T01:26:22.063Z,0.00
2024-05-09T01:27:21.980Z,0.00
2024-05-09T01:28:21.974Z,0.00
2024-05-09T01:29:22.011Z,0.00
2024-05-09T01:30:31.198Z,0.00
2024-05-09T01:31:21.953Z,0.00
2024-05-09T01:32:22.308Z,0.00
2024-05-09T01:33:22.138Z,0.00
2024-05-09T01:34:22.093Z,0.00
2024-05-09T01:35:22.012Z,0.00
2024-05-09T01:36:21.875Z,0.00
2024-05-09T01:37:21.866Z,0.00
2024-05-09T01:38:21.936Z,0.00
2024-05-09T01:39:21.846Z,0.00
2024-05-09T01:40:28.680Z,0.00
2024-05-09T01:41:21.877Z,0.00
2024-05-09T01:42:21.849Z,0.00
2024-05-09T01:43:21.804Z,0.00
2024-05-09T01:44:21.845Z,0.00
2024-05-09T01:45:21.824Z,0.00
2024-05-09T01:46:21.784Z,0.00
2024-05-09T01:47:21.891Z,0.00
2024-05-09T01:48:21.978Z,0.00
2024-05-09T01:49:21.884Z,0.00
2024-05-09T01:50:33.222Z,0.00
2024-05-09T01:51:21.758Z,0.00
2024-05-09T01:52:21.719Z,0.00
2024-05-09T01:53:21.852Z,0.00
2024-05-09T01:54:21.693Z,0.00
2024-05-09T01:55:21.672Z,0.00
2024-05-09T01:56:21.761Z,0.00
2024-05-09T01:57:21.651Z,0.00
2024-05-09T01:58:21.667Z,0.00
2024-05-09T01:59:21.716Z,0.00
2024-05-09T02:00:30.283Z,0.00
2024-05-09T02:01:21.643Z,0.00
2024-05-09T02:02:21.810Z,0.00
2024-05-09T02:03:21.757Z,0.00
2024-05-09T02:04:21.822Z,0.00
2024-05-09T02:05:21.692Z,0.00
2024-05-09T02:06:21.554Z,0.00
2024-05-09T02:07:21.558Z,0.00
2024-05-09T02:08:22.141Z,0.00
2024-05-09T02:09:21.540Z,0.00
2024-05-09T02:10:26.488Z,0.00
2024-05-09T02:11:21.567Z,0.00
2024-05-09T02:12:21.617Z,0.00
2024-05-09T02:13:21.509Z,0.00
2024-05-09T02:14:21.523Z,0.00
2024-05-09T02:15:21.457Z,0.00
2024-05-09T02:16:21.484Z,0.00
2024-05-09T02:17:21.576Z,0.00
2024-05-09T02:18:21.598Z,0.00
2024-05-09T02:19:21.614Z,0.00
2024-05-09T02:21:21.415Z,0.00
2024-05-09T02:22:21.431Z,0.00
2024-05-09T02:23:21.472Z,0.00
2024-05-09T02:24:21.374Z,0.00
2024-05-09T02:25:21.360Z,0.00
2024-05-09T02:26:21.394Z,0.00
2024-05-09T02:27:21.340Z,0.00
2024-05-09T02:28:21.350Z,0.00
2024-05-09T02:29:21.451Z,0.00
2024-05-09T02:30:29.971Z,0.00
2024-05-09T02:31:21.326Z,0.00
2024-05-09T02:32:21.419Z,0.00
2024-05-09T02:33:21.779Z,0.00
2024-05-09T02:34:21.363Z,0.00
2024-05-09T02:35:21.307Z,0.00
2024-05-09T02:36:21.251Z,0.00
2024-05-09T02:37:21.245Z,0.00
2024-05-09T02:38:21.345Z,0.00
2024-05-09T02:39:21.204Z,0.00
2024-05-09T02:40:28.929Z,0.00
2024-05-09T02:41:21.303Z,0.00
2024-05-09T02:42:21.181Z,0.00
2024-05-09T02:43:21.171Z,0.00
2024-05-09T02:44:21.272Z,0.00
2024-05-09T02:45:21.241Z,0.00
2024-05-09T02:46:21.154Z,0.00
2024-05-09T02:47:21.428Z,0.00
2024-05-09T02:48:21.447Z,0.00
2024-05-09T02:49:21.449Z,0.00
2024-05-09T02:50:29.738Z,0.00
2024-05-09T02:51:21.284Z,0.00
2024-05-09T02:52:21.178Z,0.00
2024-05-09T02:53:21.142Z,0.00
2024-05-09T02:54:21.146Z,0.00
2024-05-09T02:55:21.123Z,0.00
2024-05-09T02:56:21.216Z,0.00
2024-05-09T02:57:21.030Z,0.00
2024-05-09T02:58:21.006Z,0.00
2024-05-09T02:59:21.170Z,0.00
2024-05-09T03:00:26.451Z,0.00
2024-05-09T03:01:21.145Z,0.00
2024-05-09T03:02:21.070Z,0.00
2024-05-09T03:03:21.150Z,0.00
2024-05-09T03:04:21.058Z,0.00
2024-05-09T03:05:20.950Z,0.00
2024-05-09T03:06:20.939Z,0.00
2024-05-09T03:07:20.960Z,0.00
2024-05-09T03:08:20.885Z,0.00
2024-05-09T03:09:20.893Z,0.00
2024-05-09T03:10:25.612Z,0.00
2024-05-09T03:11:20.997Z,0.00
2024-05-09T03:12:20.935Z,0.00
2024-05-09T03:13:20.852Z,0.00
2024-05-09T03:14:20.874Z,0.00
2024-05-09T03:15:20.855Z,0.00
2024-05-09T03:16:20.843Z,0.00
2024-05-09T03:17:20.829Z,0.00
2024-05-09T03:18:20.837Z,0.00
2024-05-09T03:19:20.836Z,0.00
2024-05-09T03:20:24.267Z,0.00
2024-05-09T03:21:20.727Z,0.00
2024-05-09T03:22:20.708Z,0.00
2024-05-09T03:23:20.788Z,0.00
2024-05-09T03:24:20.692Z,0.00
2024-05-09T03:25:20.685Z,0.00
2024-05-09T03:26:20.737Z,0.00
2024-05-09T03:27:20.652Z,0.00
2024-05-09T03:28:20.660Z,0.00
2024-05-09T03:29:20.700Z,0.00
2024-05-09T03:30:29.604Z,0.00
2024-05-09T03:31:20.636Z,0.00
2024-05-09T03:32:20.677Z,0.00
2024-05-09T03:33:21.284Z,0.00
2024-05-09T03:34:20.728Z,0.00
2024-05-09T03:35:20.603Z,0.00
2024-05-09T03:36:20.576Z,0.00
2024-05-09T03:37:20.544Z,0.00
2024-05-09T03:38:20.580Z,0.00
2024-05-09T03:39:20.526Z,0.00
2024-05-09T03:40:23.886Z,0.00
2024-05-09T03:41:20.545Z,0.00
2024-05-09T03:42:20.527Z,0.00
2024-05-09T03:43:20.481Z,0.00
2024-05-09T03:44:20.545Z,0.00
2024-05-09T03:45:20.465Z,0.00
2024-05-09T03:46:20.450Z,0.00
2024-05-09T03:47:20.583Z,0.00
2024-05-09T03:48:20.639Z,0.00
2024-05-09T03:49:20.499Z,0.00
2024-05-09T03:50:26.351Z,0.00
2024-05-09T03:51:20.483Z,0.00
2024-05-09T03:52:20.392Z,0.00
2024-05-09T03:53:20.404Z,0.00
2024-05-09T03:54:20.419Z,0.00
2024-05-09T03:55:20.364Z,0.00
2024-05-09T03:56:20.414Z,0.00
2024-05-09T03:57:20.389Z,0.00
2024-05-09T03:58:20.357Z,0.00
2024-05-09T03:59:20.355Z,0.00
2024-05-09T04:00:30.415Z,0.00
2024-05-09T04:01:20.397Z,0.00
2024-05-09T04:02:20.329Z,0.00
2024-05-09T04:03:20.649Z,0.00
2024-05-09T04:04:20.338Z,0.00
2024-05-09T04:05:20.318Z,0.00
2024-05-09T04:06:20.282Z,0.00
2024-05-09T04:07:20.259Z,0.00
2024-05-09T04:08:20.288Z,0.00
2024-05-09T04:09:20.208Z,5.62
2024-05-09T04:10:27.755Z,5.62
2024-05-09T04:11:20.349Z,5.62
2024-05-09T04:12:20.280Z,5.62
2024-05-09T04:13:20.191Z,5.62
2024-05-09T04:14:20.341Z,5.62
2024-05-09T04:15:20.153Z,5.62
2024-05-09T04:16:20.160Z,5.62
2024-05-09T04:17:20.239Z,5.62
2024-05-09T04:18:20.190Z,5.62
2024-05-09T04:19:20.363Z,5.62
2024-05-09T04:20:29.310Z,5.62
2024-05-09T04:21:20.112Z,5.62
2024-05-09T04:22:20.077Z,5.62
2024-05-09T04:23:20.184Z,5.62
2024-05-09T04:24:20.067Z,5.62
2024-05-09T04:25:20.058Z,5.62
2024-05-09T04:26:20.082Z,5.62
2024-05-09T04:27:20.028Z,5.62
2024-05-09T04:28:20.036Z,5.62
2024-05-09T04:29:20.136Z,5.62
2024-05-09T04:30:26.477Z,5.62
2024-05-09T04:31:19.996Z,5.62
2024-05-09T04:32:20.085Z,5.62
2024-05-09T04:33:20.406Z,5.62
2024-05-09T04:34:20.023Z,5.62
2024-05-09T04:35:20.054Z,5.62
2024-05-09T04:36:19.960Z,5.62
2024-05-09T04:37:19.916Z,5.62
2024-05-09T04:38:20.030Z,11.25
2024-05-09T04:39:19.911Z,11.25
2024-05-09T04:40:28.118Z,11.25
2024-05-09T04:41:19.946Z,11.25
2024-05-09T04:42:19.874Z,11.25
2024-05-09T04:43:19.850Z,11.25
2024-05-09T04:44:19.880Z,11.25
2024-05-09T04:45:19.860Z,11.25
2024-05-09T04:46:19.829Z,11.25
2024-05-09T04:47:20.042Z,11.25
2024-05-09T04:48:20.011Z,11.25
2024-05-09T04:49:20.020Z,11.25
2024-05-09T04:50:29.326Z,11.25
2024-05-09T04:51:19.806Z,11.25
2024-05-09T04:52:19.757Z,11.25
2024-05-09T04:53:19.793Z,11.25
2024-05-09T04:54:30.074Z,11.25
2024-05-09T04:55:19.745Z,11.25
2024-05-09T04:56:19.806Z,11.25
2024-05-09T04:57:19.736Z,11.25
2024-05-09T04:58:19.720Z,11.25
2024-05-09T04:59:19.725Z,11.25
2024-05-09T05:00:28.463Z,11.25
2024-05-09T05:01:19.706Z,11.25
2024-05-09T05:02:19.843Z,11.25
2024-05-09T05:03:20.018Z,11.25
2024-05-09T05:04:19.741Z,11.25
2024-05-09T05:05:19.770Z,11.25
2024-05-09T05:06:19.617Z,11.25
2024-05-09T05:07:19.601Z,11.25
2024-05-09T05:08:19.938Z,11.25
2024-05-09T05:09:19.607Z,11.25
2024-05-09T05:10:25.455Z,11.25
2024-05-09T05:11:19.751Z,11.25
2024-05-09T05:12:19.666Z,11.25
2024-05-09T05:13:21.096Z,11.25
2024-05-09T05:14:19.758Z,11.25
2024-05-09T05:15:19.517Z,11.25
2024-05-09T05:16:19.514Z,11.25
2024-05-09T05:17:19.619Z,11.25
2024-05-09T05:18:19.884Z,16.88
2024-05-09T05:19:19.604Z,16.88
2024-05-09T05:20:27.402Z,16.88
2024-05-09T05:21:19.628Z,16.88
2024-05-09T05:22:19.448Z,16.88
2024-05-09T05:23:19.605Z,16.88
2024-05-09T05:24:19.452Z,16.88
2024-05-09T05:25:19.426Z,16.88
2024-05-09T05:26:19.483Z,16.88
2024-05-09T05:27:19.391Z,16.88
2024-05-09T05:28:19.401Z,16.88
2024-05-09T05:29:20.993Z,16.88
2024-05-09T05:30:25.062Z,16.88
2024-05-09T05:31:19.384Z,16.88
2024-05-09T05:32:19.631Z,16.88
2024-05-09T05:33:19.975Z,16.88
2024-05-09T05:34:19.340Z,16.88
2024-05-09T05:35:19.374Z,16.88
2024-05-09T05:36:19.290Z,16.88
2024-05-09T05:37:19.281Z,16.88
2024-05-09T05:38:21.945Z,16.88
2024-05-09T05:39:19.315Z,16.88
2024-05-09T05:40:28.138Z,16.88
2024-05-09T05:41:19.298Z,16.88
2024-05-09T05:42:19.253Z,16.88
2024-05-09T05:43:19.244Z,16.88
2024-05-09T05:44:19.266Z,16.88
2024-05-09T05:45:19.227Z,16.88
2024-05-09T05:46:19.200Z,16.88
2024-05-09T05:47:19.244Z,16.88
2024-05-09T05:48:19.414Z,16.88
2024-05-09T05:49:19.276Z,16.88
2024-05-09T05:50:27.355Z,16.88
2024-05-09T05:51:19.215Z,16.88
2024-05-09T05:52:19.143Z,16.88
2024-05-09T05:53:19.162Z,16.88
2024-05-09T05:54:19.138Z,16.88
2024-05-09T05:55:19.096Z,16.88
2024-05-09T05:56:19.127Z,16.88
2024-05-09T05:57:19.080Z,16.88
2024-05-09T05:58:19.064Z,16.88
2024-05-09T05:59:19.081Z,16.88
2024-05-09T06:00:29.178Z,16.88
2024-05-09T06:01:19.104Z,16.88
2024-05-09T06:02:19.364Z,16.88
2024-05-09T06:03:19.031Z,16.88
2024-05-09T06:04:19.077Z,16.88
2024-05-09T06:05:19.041Z,16.88
2024-05-09T06:06:18.976Z,16.88
2024-05-09T06:07:18.979Z,16.88
2024-05-09T06:08:19.025Z,16.88
2024-05-09T06:09:19.002Z,16.88
2024-05-09T06:10:25.374Z,16.88
2024-05-09T06:11:19.053Z,16.88
2024-05-09T06:12:19.060Z,16.88
2024-05-09T06:13:18.918Z,16.88
2024-05-09T06:14:18.938Z,16.88
2024-05-09T06:15:18.909Z,16.88
2024-05-09T06:16:18.885Z,16.88
2024-05-09T06:17:19.010Z,16.88
2024-05-09T06:18:19.214Z,16.88
2024-05-09T06:19:18.940Z,16.88
2024-05-09T06:20:24.025Z,16.88
2024-05-09T06:21:19.006Z,16.88
2024-05-09T06:22:18.823Z,16.88
2024-05-09T06:23:18.844Z,16.88
2024-05-09T06:24:18.796Z,16.88
2024-05-09T06:25:18.775Z,16.88
2024-05-09T06:26:18.839Z,16.88
2024-05-09T06:27:18.765Z,16.88
2024-05-09T06:28:18.747Z,16.88
2024-05-09T06:29:18.790Z,16.88
2024-05-09T06:30:25.599Z,16.88
2024-05-09T06:31:18.724Z,16.88
2024-05-09T06:32:18.830Z,16.88
2024-05-09T06:33:18.952Z,16.88
2024-05-09T06:34:18.954Z,16.88
2024-05-09T06:35:18.766Z,16.88
2024-05-09T06:36:18.707Z,16.88
2024-05-09T06:37:18.677Z,16.88
2024-05-09T06:38:18.681Z,16.88
2024-05-09T06:39:18.643Z,16.88
2024-05-09T06:40:25.466Z,16.88
2024-05-09T06:41:18.701Z,16.88
2024-05-09T06:42:18.595Z,16.88
2024-05-09T06:43:19.745Z,16.88
2024-05-09T06:44:18.670Z,16.88
2024-05-09T06:45:18.579Z,16.88
2024-05-09T06:46:18.558Z,16.88
2024-05-09T06:47:18.610Z,16.88
2024-05-09T06:48:19.305Z,16.88
2024-05-09T06:49:18.739Z,16.88
2024-05-09T06:50:23.932Z,16.88
2024-05-09T06:51:18.568Z,16.88
2024-05-09T06:52:18.498Z,16.88
2024-05-09T06:53:18.588Z,16.88
2024-05-09T06:54:18.480Z,16.88
2024-05-09T06:55:18.499Z,16.88
2024-05-09T06:56:18.500Z,16.88
2024-05-09T06:57:18.438Z,16.88
2024-05-09T06:58:18.439Z,16.88
2024-05-09T06:59:18.520Z,16.88
2024-05-09T07:00:26.912Z,16.88
2024-05-09T07:01:18.450Z,16.88
2024-05-09T07:02:18.485Z,16.88
2024-05-09T07:03:19.492Z,16.88
2024-05-09T07:04:18.450Z,16.88
2024-05-09T07:05:18.452Z,16.88
2024-05-09T07:06:18.456Z,16.88
2024-05-09T07:07:18.377Z,16.88
2024-05-09T07:08:18.543Z,16.88
2024-05-09T07:09:18.326Z,16.88
2024-05-09T07:10:25.579Z,16.88
2024-05-09T07:11:18.443Z,16.88
2024-05-09T07:12:18.458Z,16.88
2024-05-09T07:13:18.281Z,16.88
2024-05-09T07:14:18.307Z,16.88
2024-05-09T07:15:18.242Z,16.88
2024-05-09T07:16:18.258Z,16.88
2024-05-09T07:17:18.316Z,16.88
2024-05-09T07:18:19.299Z,16.88
2024-05-09T07:19:18.332Z,16.88
2024-05-09T07:20:23.734Z,16.88
2024-05-09T07:21:18.310Z,16.88
2024-05-09T07:22:18.175Z,16.88
2024-05-09T07:23:18.444Z,16.88
2024-05-09T07:24:18.165Z,16.88
2024-05-09T07:25:18.187Z,16.88
2024-05-09T07:26:18.350Z,16.88
2024-05-09T07:27:18.127Z,16.88
2024-05-09T07:28:18.220Z,16.88
2024-05-09T07:29:18.222Z,16.88
2024-05-09T07:30:23.572Z,16.88
2024-05-09T07:31:18.101Z,16.88
2024-05-09T07:32:18.202Z,16.88
2024-05-09T07:33:18.383Z,16.88
2024-05-09T07:34:18.144Z,16.88
2024-05-09T07:35:18.114Z,16.88
2024-05-09T07:36:18.068Z,22.50
2024-05-09T07:37:18.019Z,16.88
2024-05-09T07:38:18.076Z,22.50
2024-05-09T07:39:17.992Z,22.50
2024-05-09T07:40:28.170Z,16.88
2024-05-09T07:41:18.012Z,16.88
2024-05-09T07:42:17.995Z,16.88
2024-05-09T07:43:17.949Z,22.50
2024-05-09T07:44:17.977Z,16.88
2024-05-09T07:45:39.658Z,16.88
2024-05-09T07:47:14.348Z,22.50
2024-05-09T07:50:34.261Z,22.50
2024-05-09T07:53:32.454Z,22.50
2024-05-09T07:53:49.304Z,22.50
2024-05-09T07:54:00.441Z,22.50
2024-05-09T07:54:56.290Z,22.50
2024-05-09T07:55:56.642Z,22.50
2024-05-09T07:56:56.183Z,22.50
2024-05-09T07:57:55.974Z,22.50
2024-05-09T07:58:56.364Z,22.50
2024-05-09T07:59:55.930Z,22.50
2024-05-09T08:00:56.063Z,22.50
2024-05-09T08:01:56.056Z,22.50
2024-05-09T08:02:55.988Z,22.50
2024-05-09T08:03:56.136Z,22.50
2024-05-09T08:04:55.959Z,22.50
2024-05-09T08:05:55.861Z,22.50
2024-05-09T08:06:55.865Z,22.50
2024-05-09T08:07:55.819Z,22.50
2024-05-09T08:08:56.060Z,22.50
2024-05-09T08:09:55.909Z,22.50
2024-05-09T08:10:55.873Z,22.50
2024-05-09T08:11:55.899Z,22.50
2024-05-09T08:12:55.826Z,22.50
2024-05-09T08:13:55.792Z,22.50
2024-05-09T08:14:55.762Z,22.50
2024-05-09T08:15:55.826Z,22.50
2024-05-09T08:16:55.787Z,22.50
2024-05-09T08:17:56.018Z,22.50
2024-05-09T08:18:55.792Z,22.50
2024-05-09T08:19:55.702Z,22.50
2024-05-09T08:20:55.734Z,22.50
2024-05-09T08:21:55.731Z,22.50
2024-05-09T08:22:55.664Z,22.50
2024-05-09T08:23:55.672Z,22.50
2024-05-09T08:24:55.767Z,22.50
2024-05-09T08:25:55.709Z,22.50
2024-05-09T08:26:55.641Z,22.50
2024-05-09T08:27:55.700Z,22.50
2024-05-09T08:28:55.597Z,22.50
2024-05-09T08:29:55.709Z,22.50
2024-05-09T08:30:55.761Z,22.50
2024-05-09T08:31:55.633Z,22.50
2024-05-09T08:32:55.766Z,22.50
2024-05-09T08:33:55.753Z,22.50
2024-05-09T08:34:55.660Z,22.50
2024-05-09T08:35:55.548Z,22.50
2024-05-09T08:36:57.549Z,22.50
2024-05-09T08:37:55.644Z,22.50
2024-05-09T08:38:55.497Z,22.50
2024-05-09T08:39:55.663Z,22.50
2024-05-09T08:40:55.623Z,22.50
2024-05-09T08:41:55.473Z,22.50
2024-05-09T08:42:55.522Z,22.50
2024-05-09T08:43:55.432Z,22.50
2024-05-09T08:44:55.446Z,22.50
2024-05-09T08:45:55.455Z,22.50
2024-05-09T08:46:55.440Z,22.50
2024-05-09T08:47:55.649Z,22.50
2024-05-09T08:48:55.594Z,22.50
2024-05-09T08:49:55.463Z,22.50
2024-05-09T08:50:55.430Z,22.50
2024-05-09T08:51:55.450Z,22.50
2024-05-09T08:52:55.370Z,22.50
2024-05-09T08:53:55.344Z,22.50
2024-05-09T08:54:55.387Z,22.50
2024-05-09T08:55:55.335Z,22.50
2024-05-09T08:56:55.311Z,22.50
2024-05-09T08:57:55.382Z,22.50
2024-05-09T08:58:55.328Z,22.50
2024-05-09T08:59:55.291Z,22.50
2024-05-09T09:00:55.482Z,22.50
2024-05-09T09:01:55.430Z,22.50
2024-05-09T09:02:55.325Z,22.50
2024-05-09T09:03:55.419Z,22.50
2024-05-09T09:04:55.336Z,22.50
2024-05-09T09:05:55.208Z,22.50
2024-05-09T09:06:58.179Z,22.50
2024-05-09T09:07:55.194Z,22.50
2024-05-09T09:08:55.194Z,22.50
2024-05-09T09:09:55.228Z,22.50
2024-05-09T09:10:55.281Z,22.50
2024-05-09T09:11:55.265Z,22.50
2024-05-09T09:12:55.192Z,22.50
2024-05-09T09:13:55.161Z,22.50
2024-05-09T09:14:55.121Z,22.50
2024-05-09T09:15:55.130Z,22.50
2024-05-09T09:16:55.109Z,22.50
2024-05-09T09:17:55.251Z,22.50
2024-05-09T09:18:55.257Z,22.50
2024-05-09T09:19:55.125Z,22.50
2024-05-09T09:20:55.275Z,22.50
2024-05-09T09:21:55.089Z,22.50
2024-05-09T09:22:55.027Z,22.50
2024-05-09T09:23:55.017Z,22.50
2024-05-09T09:24:55.034Z,22.50
2024-05-09T09:25:55.008Z,22.50
2024-05-09T09:26:54.989Z,22.50
2024-05-09T09:27:55.152Z,22.50
2024-05-09T09:28:54.975Z,22.50
2024-05-09T09:29:54.951Z,22.50
2024-05-09T09:30:54.975Z,22.50
2024-05-09T09:31:54.940Z,22.50
2024-05-09T09:32:55.049Z,22.50
2024-05-09T09:33:55.247Z,22.50
2024-05-09T09:34:55.090Z,22.50
2024-05-09T09:35:54.892Z,22.50
2024-05-09T09:36:54.938Z,22.50
2024-05-09T09:37:54.895Z,22.50
2024-05-09T09:38:54.899Z,22.50
2024-05-09T09:39:54.856Z,22.50
2024-05-09T09:40:54.928Z,22.50
2024-05-09T09:41:54.820Z,22.50
2024-05-09T09:42:54.869Z,22.50
2024-05-09T09:43:54.814Z,22.50
2024-05-09T09:45:03.762Z,22.50
2024-05-09T09:45:54.843Z,22.50
2024-05-09T09:46:54.797Z,22.50
2024-05-09T09:47:54.867Z,22.50
2024-05-09T09:48:54.896Z,22.50
2024-05-09T09:49:54.827Z,22.50
2024-05-09T09:50:54.723Z,22.50
2024-05-09T09:51:54.759Z,22.50
2024-05-09T09:52:54.718Z,22.50
2024-05-09T09:53:54.716Z,22.50
2024-05-09T09:54:55.030Z,22.50
2024-05-09T09:55:54.692Z,22.50
2024-05-09T09:56:54.676Z,22.50
2024-05-09T09:57:54.691Z,22.50
2024-05-09T09:58:54.650Z,22.50
2024-05-09T09:59:54.626Z,22.50
2024-05-09T10:00:54.854Z,22.50
2024-05-09T10:01:54.714Z,22.50
2024-05-09T10:02:54.637Z,16.88
2024-05-09T10:03:54.760Z,22.50
2024-05-09T10:04:54.746Z,22.50
2024-05-09T10:05:54.662Z,22.50
2024-05-09T10:06:54.669Z,22.50
2024-05-09T10:07:54.545Z,22.50
2024-05-09T10:08:54.579Z,22.50
2024-05-09T10:09:54.544Z,22.50
2024-05-09T10:10:54.725Z,22.50
2024-05-09T10:11:59.853Z,22.50
2024-05-09T10:12:54.564Z,22.50
2024-05-09T10:13:54.502Z,22.50
2024-05-09T10:14:54.507Z,22.50
2024-05-09T10:15:54.836Z,22.50
2024-05-09T10:16:54.472Z,22.50
2024-05-09T10:17:54.762Z,22.50
2024-05-09T10:18:54.633Z,22.50
2024-05-09T10:19:54.517Z,22.50
2024-05-09T10:20:54.454Z,28.12
2024-05-09T10:21:54.439Z,28.12
2024-05-09T10:22:54.415Z,28.12
2024-05-09T10:23:54.379Z,28.12
2024-05-09T10:24:54.423Z,28.12
2024-05-09T10:25:54.353Z,22.50
2024-05-09T10:26:54.363Z,22.50
2024-05-09T10:27:54.480Z,22.50
2024-05-09T10:28:54.320Z,22.50
2024-05-09T10:29:54.332Z,28.12
2024-05-09T10:30:54.360Z,28.12
2024-05-09T10:31:54.384Z,22.50
2024-05-09T10:32:54.361Z,16.88
2024-05-09T10:33:54.443Z,28.12
2024-05-09T10:34:54.258Z,22.50
2024-05-09T10:35:54.257Z,22.50
2024-05-09T10:36:54.335Z,16.88
2024-05-09T10:37:54.222Z,16.88
2024-05-09T10:38:54.233Z,16.88
2024-05-09T10:39:54.274Z,16.88
2024-05-09T10:40:54.203Z,16.88
2024-05-09T10:41:54.209Z,16.88
2024-05-09T10:42:54.245Z,16.88
2024-05-09T10:43:54.172Z,22.50
2024-05-09T10:44:54.182Z,33.75
2024-05-09T10:45:54.265Z,33.75
2024-05-09T10:46:54.176Z,33.75
2024-05-09T10:47:54.423Z,33.75
2024-05-09T10:48:54.323Z,33.75
2024-05-09T10:49:54.229Z,33.75
2024-05-09T10:50:54.118Z,33.75
2024-05-09T10:51:54.166Z,33.75
2024-05-09T10:52:54.065Z,33.75
2024-05-09T10:53:54.069Z,33.75
2024-05-09T10:54:54.143Z,33.75
2024-05-09T10:55:54.045Z,33.75
2024-05-09T10:56:54.044Z,33.75
2024-05-09T10:57:54.063Z,33.75
2024-05-09T10:58:54.005Z,33.75
2024-05-09T10:59:54.024Z,28.12
2024-05-09T11:00:54.117Z,28.12
2024-05-09T11:01:54.142Z,28.12
2024-05-09T11:02:54.027Z,28.12
2024-05-09T11:03:54.215Z,22.50
2024-05-09T11:04:54.177Z,22.50
2024-05-09T11:05:54.049Z,22.50
2024-05-09T11:06:53.997Z,22.50
2024-05-09T11:07:53.975Z,22.50
2024-05-09T11:08:53.901Z,28.12
2024-05-09T11:09:53.946Z,16.88
2024-05-09T11:10:53.990Z,16.88
2024-05-09T11:11:53.922Z,16.88
2024-05-09T11:12:53.935Z,16.88
2024-05-09T11:13:53.878Z,16.88
2024-05-09T11:14:53.821Z,16.88
2024-05-09T11:15:53.928Z,16.88
2024-05-09T11:16:53.806Z,16.88
2024-05-09T11:17:53.902Z,16.88
2024-05-09T11:18:53.980Z,16.88
2024-05-09T11:19:53.872Z,28.12
2024-05-09T11:20:53.777Z,28.12
2024-05-09T11:21:53.810Z,28.12
2024-05-09T11:22:53.746Z,28.12
2024-05-09T11:23:53.752Z,33.75
2024-05-09T11:24:53.761Z,33.75
2024-05-09T11:25:53.757Z,33.75
2024-05-09T11:26:53.698Z,39.38
2024-05-09T11:27:53.769Z,39.38
2024-05-09T11:28:53.674Z,39.38
2024-05-09T11:29:53.750Z,39.38
2024-05-09T11:30:53.710Z,39.38
2024-05-09T11:31:53.783Z,33.75
2024-05-09T11:32:53.748Z,33.75
2024-05-09T11:33:53.800Z,33.75
2024-05-09T11:34:53.666Z,39.38
2024-05-09T11:35:53.615Z,39.38
2024-05-09T11:36:53.701Z,39.38
2024-05-09T11:37:53.615Z,39.38
2024-05-09T11:38:53.568Z,39.38
2024-05-09T11:39:53.683Z,39.38
2024-05-09T11:40:53.712Z,33.75
2024-05-09T11:41:53.545Z,33.75
2024-05-09T11:42:53.722Z,33.75
2024-05-09T11:43:53.525Z,33.75
2024-05-09T11:44:53.520Z,33.75
2024-05-09T11:45:53.702Z,33.75
2024-05-09T11:46:53.531Z,28.12
2024-05-09T11:47:53.625Z,28.12
2024-05-09T11:48:53.751Z,22.50
2024-05-09T11:49:53.595Z,22.50
2024-05-09T11:50:53.464Z,22.50
2024-05-09T11:51:53.547Z,22.50
2024-05-09T11:52:53.453Z,16.88
2024-05-09T11:53:53.433Z,16.88
2024-05-09T11:54:53.507Z,16.88
2024-05-09T11:55:53.419Z,22.50
2024-05-09T11:56:53.401Z,22.50
2024-05-09T11:57:53.479Z,22.50
2024-05-09T11:58:53.399Z,28.12
2024-05-09T11:59:53.368Z,28.12
2024-05-09T12:00:53.516Z,28.12
2024-05-09T12:01:53.548Z,33.75
2024-05-09T12:02:53.342Z,33.75
2024-05-09T12:03:53.546Z,39.38
2024-05-09T12:04:53.447Z,45.00
2024-05-09T12:05:53.399Z,45.00
2024-05-09T12:06:53.311Z,45.00
2024-05-09T12:07:53.279Z,45.00
2024-05-09T12:08:53.300Z,45.00
2024-05-09T12:09:53.332Z,45.00
2024-05-09T12:10:53.608Z,45.00
2024-05-09T12:11:53.455Z,45.00
2024-05-09T12:12:53.296Z,39.38
2024-05-09T12:13:53.222Z,39.38
2024-05-09T12:14:53.192Z,39.38
2024-05-09T12:15:53.287Z,39.38
2024-05-09T12:16:53.226Z,39.38
2024-05-09T12:17:53.325Z,33.75
2024-05-09T12:18:53.314Z,33.75
2024-05-09T12:19:53.152Z,33.75
2024-05-09T12:20:53.136Z,28.12
2024-05-09T12:21:53.195Z,28.12
2024-05-09T12:22:53.104Z,22.50
2024-05-09T12:23:53.137Z,28.12
2024-05-09T12:24:53.164Z,22.50
2024-05-09T12:25:53.088Z,22.50
2024-05-09T12:26:53.076Z,28.12
2024-05-09T12:27:53.156Z,28.12
2024-05-09T12:28:53.056Z,28.12
2024-05-09T12:29:53.044Z,28.12
2024-05-09T12:30:53.056Z,28.12
2024-05-09T12:31:53.118Z,28.12
2024-05-09T12:32:53.266Z,28.12
2024-05-09T12:33:53.060Z,28.12
2024-05-09T12:34:53.140Z,33.75
2024-05-09T12:35:52.983Z,33.75
2024-05-09T12:36:52.999Z,33.75
2024-05-09T12:37:52.954Z,33.75
2024-05-09T12:38:52.933Z,33.75
2024-05-09T12:39:52.983Z,39.38
2024-05-09T12:40:53.161Z,39.38
2024-05-09T12:41:52.897Z,39.38
2024-05-09T12:42:52.960Z,39.38
2024-05-09T12:43:52.901Z,39.38
2024-05-09T12:44:52.895Z,39.38
2024-05-09T12:45:52.895Z,39.38
2024-05-09T12:46:52.888Z,39.38
2024-05-09T12:47:52.901Z,39.38
2024-05-09T12:48:53.095Z,39.38
2024-05-09T12:49:52.847Z,39.38
2024-05-09T12:50:52.849Z,39.38
2024-05-09T12:51:52.878Z,39.38
2024-05-09T12:52:52.827Z,39.38
2024-05-09T12:53:52.773Z,39.38
2024-05-09T12:54:52.807Z,39.38
2024-05-09T12:55:57.002Z,39.38
2024-05-09T12:56:52.788Z,39.38
2024-05-09T12:57:52.779Z,33.75
2024-05-09T12:58:52.728Z,33.75
2024-05-09T12:59:52.743Z,28.12
2024-05-09T13:00:53.138Z,28.12
2024-05-09T13:01:52.859Z,28.12
2024-05-09T13:02:52.736Z,28.12
2024-05-09T13:03:53.029Z,28.12
2024-05-09T13:04:52.833Z,28.12
2024-05-09T13:05:52.806Z,28.12